createdAt,value
2018-03-14T00:00:46.185Z,4.00
2018-03-14T00:03:13.875Z,3.95
2018-03-14T00:05:41.400Z,4.25
2018-03-14T00:08:09.078Z,4.30
2018-03-14T00:10:36.588Z,4.70
2018-03-14T00:13:04.274Z,4.90
2018-03-14T00:15:31.793Z,4.57
2018-03-14T00:18:00.233Z,4.85
2018-03-14T00:20:28.680Z,6.10
2018-03-14T00:22:56.413Z,6.00
2018-03-14T00:25:24.096Z,5.05
2018-03-14T00:27:51.800Z,5.85
2018-03-14T00:30:19.474Z,6.40
2018-03-14T00:32:46.973Z,5.60
2018-03-14T00:35:14.661Z,6.28
2018-03-14T00:37:42.159Z,6.12
2018-03-14T00:40:09.846Z,6.10
2018-03-14T00:42:37.533Z,6.50
2018-03-14T00:45:05.239Z,7.03
2018-03-14T00:47:32.925Z,8.52
2018-03-14T00:50:00.612Z,6.53
2018-03-14T00:52:28.302Z,6.50
2018-03-14T00:54:55.804Z,6.35
2018-03-14T00:57:23.494Z,7.40
2018-03-14T00:59:51.172Z,5.87
2018-03-14T01:02:18.878Z,7.12
2018-03-14T01:04:46.556Z,5.43
2018-03-14T01:07:14.070Z,2.17
2018-03-14T01:09:41.750Z,2.40
2018-03-14T01:12:09.253Z,2.20
2018-03-14T01:14:36.771Z,1.65
2018-03-14T01:17:04.456Z,2.12
2018-03-14T01:19:31.956Z,1.48
2018-03-14T01:21:59.646Z,1.80
2018-03-14T01:24:27.165Z,1.73
2018-03-14T01:26:54.854Z,2.62
2018-03-14T01:29:22.560Z,2.35
2018-03-14T01:31:50.068Z,2.20
2018-03-14T01:34:17.752Z,2.75
2018-03-14T01:36:46.238Z,3.35
2018-03-14T01:39:15.916Z,3.17
2018-03-14T01:41:43.680Z,2.47
2018-03-14T01:44:11.202Z,4.85
2018-03-14T01:46:38.736Z,2.78
2018-03-14T01:49:06.452Z,2.72
2018-03-14T01:51:33.965Z,2.25
2018-03-14T01:54:01.674Z,2.85
2018-03-14T01:56:29.184Z,2.97
2018-03-14T01:58:56.890Z,3.22
2018-03-14T02:01:24.420Z,2.85
2018-03-14T02:03:52.064Z,2.80
2018-03-14T02:06:19.761Z,2.95
2018-03-14T02:08:47.285Z,2.85
2018-03-14T02:11:14.995Z,2.72
2018-03-14T02:13:42.712Z,4.70
2018-03-14T02:16:10.240Z,3.85
2018-03-14T02:18:37.772Z,3.45
2018-03-14T02:21:05.478Z,3.40
2018-03-14T02:23:33.182Z,4.60
2018-03-14T02:26:00.697Z,4.22
2018-03-14T02:28:28.393Z,3.58
2018-03-14T02:30:55.929Z,2.85
2018-03-14T02:33:23.629Z,4.25
2018-03-14T02:35:51.141Z,4.03
2018-03-14T02:38:18.808Z,3.30
2018-03-14T02:40:46.346Z,3.20
2018-03-14T02:43:14.061Z,4.82
2018-03-14T02:45:41.734Z,3.47
2018-03-14T02:48:09.239Z,7.20
2018-03-14T02:50:36.761Z,4.20
2018-03-14T02:53:05.267Z,4.03
2018-03-14T02:55:32.765Z,4.57
2018-03-14T02:58:01.033Z,4.10
2018-03-14T03:00:29.543Z,4.68
2018-03-14T03:02:57.046Z,4.32
2018-03-14T03:05:24.548Z,4.97
2018-03-14T03:07:52.055Z,4.78
2018-03-14T03:10:19.561Z,5.32
2018-03-14T03:12:47.071Z,4.85
2018-03-14T03:15:14.760Z,6.95
2018-03-14T03:17:43.269Z,8.32
2018-03-14T03:20:10.806Z,4.30
2018-03-14T03:22:38.314Z,5.25
2018-03-14T03:25:05.821Z,5.75
2018-03-14T03:27:33.374Z,5.68
2018-03-14T03:30:02.862Z,8.45
2018-03-14T03:32:30.427Z,4.47
2018-03-14T03:34:57.937Z,6.40
2018-03-14T03:37:25.453Z,5.60
2018-03-14T03:39:52.991Z,6.00
2018-03-14T03:42:20.499Z,6.15
2018-03-14T03:44:48.030Z,5.65
2018-03-14T03:47:15.533Z,5.80
2018-03-14T03:49:43.040Z,9.48
2018-03-14T03:52:10.538Z,7.95
2018-03-14T03:54:38.046Z,6.03
2018-03-14T03:57:05.548Z,6.57
2018-03-14T03:59:33.067Z,9.30
2018-03-14T04:02:00.579Z,6.65
2018-03-14T04:04:28.134Z,7.50
2018-03-14T04:06:55.628Z,8.23
2018-03-14T04:09:23.157Z,8.10
2018-03-14T04:11:50.718Z,8.60
2018-03-14T04:14:19.086Z,9.10
2018-03-14T04:16:46.647Z,11.43
2018-03-14T04:19:14.152Z,7.78
2018-03-14T04:21:41.671Z,8.65
2018-03-14T04:24:09.176Z,9.80
2018-03-14T04:26:36.708Z,11.98
2018-03-14T04:29:05.220Z,9.52
2018-03-14T04:31:33.784Z,10.95
2018-03-14T04:34:02.433Z,8.82
2018-03-14T04:36:29.978Z,9.77
2018-03-14T04:38:57.499Z,10.10
2018-03-14T04:41:25.014Z,10.57
2018-03-14T04:43:52.535Z,8.88
2018-03-14T04:46:20.050Z,11.12
2018-03-14T04:48:47.553Z,10.25
2018-03-14T04:51:15.068Z,12.10
2018-03-14T04:53:42.585Z,11.88
2018-03-14T04:56:11.120Z,10.05
2018-03-14T04:58:40.580Z,11.10
2018-03-14T05:01:08.084Z,9.98
2018-03-14T05:03:35.594Z,9.65
2018-03-14T05:06:03.122Z,12.05
2018-03-14T05:08:30.642Z,11.10
2018-03-14T05:10:58.152Z,10.75
2018-03-14T05:13:25.661Z,9.77
2018-03-14T05:15:53.177Z,10.93
2018-03-14T05:18:20.704Z,9.95
2018-03-14T05:20:48.207Z,9.38
2018-03-14T05:23:15.725Z,9.80
2018-03-14T05:25:43.294Z,6.45
2018-03-14T05:28:10.801Z,7.20
2018-03-14T05:30:39.305Z,8.23
2018-03-14T05:33:06.809Z,7.62
2018-03-14T05:35:34.313Z,10.80
2018-03-14T05:38:02.809Z,6.32
2018-03-14T05:40:30.315Z,5.60
2018-03-14T05:42:57.818Z,5.65
2018-03-14T05:45:25.317Z,4.70
2018-03-14T05:47:52.837Z,6.97
2018-03-14T05:50:20.342Z,7.15
2018-03-14T05:52:48.849Z,5.30
2018-03-14T05:55:16.369Z,5.47
2018-03-14T05:57:43.888Z,8.50
2018-03-14T06:00:11.400Z,4.10
2018-03-14T06:02:38.914Z,6.62
2018-03-14T06:05:06.432Z,5.55
2018-03-14T06:07:33.962Z,4.68
2018-03-14T06:10:01.483Z,3.80
2018-03-14T06:12:28.997Z,3.40
2018-03-14T06:14:56.501Z,4.65
2018-03-14T06:17:24.005Z,2.83
2018-03-14T06:19:51.515Z,4.37
2018-03-14T06:22:19.062Z,3.40
2018-03-14T06:24:46.567Z,3.62
2018-03-14T06:27:14.083Z,3.50
2018-03-14T06:29:41.577Z,3.53
2018-03-14T06:32:10.085Z,2.83
2018-03-14T06:34:37.611Z,4.30
2018-03-14T06:37:05.168Z,3.05
2018-03-14T06:39:32.676Z,3.45
2018-03-14T06:42:00.185Z,4.05
2018-03-14T06:44:27.697Z,3.67
2018-03-14T06:46:55.214Z,3.25
2018-03-14T06:49:22.720Z,4.32
2018-03-14T06:51:51.104Z,3.35
2018-03-14T06:54:18.622Z,4.03
2018-03-14T06:56:46.125Z,3.20
2018-03-14T06:59:19.165Z,4.85
2018-03-14T07:01:52.277Z,4.30
2018-03-14T07:04:25.289Z,6.20
2018-03-14T07:06:52.778Z,3.62
2018-03-14T07:09:20.297Z,3.95
2018-03-14T07:11:47.817Z,7.53
2018-03-14T07:14:15.328Z,4.85
2018-03-14T07:16:42.865Z,6.32
2018-03-14T07:19:10.407Z,5.55
2018-03-14T07:21:37.916Z,4.57
2018-03-14T07:24:05.422Z,6.47
2018-03-14T07:26:32.942Z,6.12
2018-03-14T07:29:00.444Z,6.70
2018-03-14T07:31:27.944Z,7.55
2018-03-14T07:33:55.450Z,5.68
2018-03-14T07:36:22.992Z,5.43
2018-03-14T07:38:50.660Z,7.55
2018-03-14T07:41:18.184Z,10.55
2018-03-14T07:43:45.714Z,12.52
2018-03-14T07:46:13.246Z,15.95
2018-03-14T07:48:40.766Z,10.82
2018-03-14T07:51:08.281Z,9.65
2018-03-14T07:53:35.799Z,6.53
2018-03-14T07:56:03.317Z,9.10
2018-03-14T07:58:30.826Z,5.30
2018-03-14T08:00:58.337Z,5.75
2018-03-14T08:03:25.899Z,7.30
2018-03-14T08:05:53.437Z,5.78
2018-03-14T08:08:21.060Z,7.05
2018-03-14T08:10:48.576Z,5.93
2018-03-14T08:13:16.082Z,6.68
2018-03-14T08:15:43.717Z,9.48
2018-03-14T08:18:11.271Z,9.00
2018-03-14T08:20:38.784Z,10.77
2018-03-14T08:23:06.299Z,6.82
2018-03-14T08:25:33.850Z,6.72
2018-03-14T08:28:01.372Z,6.37
2018-03-14T08:30:30.861Z,5.03
2018-03-14T08:32:58.372Z,5.75
2018-03-14T08:35:25.892Z,9.48
2018-03-14T08:37:53.437Z,6.30
2018-03-14T08:40:20.950Z,8.23
2018-03-14T08:42:48.465Z,8.70
2018-03-14T08:45:17.300Z,5.65
2018-03-14T08:47:44.811Z,7.78
2018-03-14T08:50:12.318Z,6.03
2018-03-14T08:52:39.843Z,9.43
2018-03-14T08:55:09.383Z,6.70
2018-03-14T08:57:36.897Z,6.30
2018-03-14T09:00:04.408Z,7.53
2018-03-14T09:02:31.924Z,8.32
2018-03-14T09:04:59.441Z,6.18
2018-03-14T09:07:26.987Z,5.75
2018-03-14T09:09:54.656Z,4.93
2018-03-14T09:12:22.163Z,6.30
2018-03-14T09:14:49.676Z,6.90
2018-03-14T09:17:17.203Z,6.35
2018-03-14T09:19:44.750Z,5.03
2018-03-14T09:22:12.257Z,7.50
2018-03-14T09:24:41.708Z,4.60
2018-03-14T09:27:10.228Z,5.93
2018-03-14T09:29:37.732Z,4.40
2018-03-14T09:32:07.201Z,4.68
2018-03-14T09:34:36.665Z,6.60
2018-03-14T09:37:06.107Z,5.12
2018-03-14T09:39:35.546Z,6.40
2018-03-14T09:42:03.069Z,4.47
2018-03-14T09:44:30.580Z,8.00
2018-03-14T09:46:58.080Z,5.05
2018-03-14T09:49:26.782Z,6.62
2018-03-14T09:51:54.290Z,4.40
2018-03-14T09:54:21.801Z,5.18
2018-03-14T09:56:49.311Z,5.00
2018-03-14T09:59:16.805Z,5.10
2018-03-14T10:01:44.423Z,4.95
2018-03-14T10:04:13.860Z,7.60
2018-03-14T10:06:41.348Z,6.53
2018-03-14T10:09:08.870Z,8.45
2018-03-14T10:11:36.557Z,5.90
2018-03-14T10:14:04.074Z,5.00
2018-03-14T10:16:31.743Z,4.97
2018-03-14T10:18:59.231Z,4.50
2018-03-14T10:21:27.656Z,4.78
2018-03-14T10:23:55.150Z,3.85
2018-03-14T10:26:22.646Z,4.60
2018-03-14T10:28:52.076Z,4.57
2018-03-14T10:31:19.568Z,4.32
2018-03-14T10:33:47.060Z,4.00
2018-03-14T10:36:14.560Z,3.95
2018-03-14T10:38:42.213Z,5.90
2018-03-14T10:41:09.841Z,4.85
2018-03-14T10:43:37.490Z,3.50
2018-03-14T10:46:04.992Z,3.45
2018-03-14T10:48:32.501Z,3.67
2018-03-14T10:51:00.008Z,10.10
2018-03-14T10:53:27.557Z,5.22
2018-03-14T10:55:55.077Z,5.78
2018-03-14T10:58:24.529Z,4.60
2018-03-14T11:01:11.704Z,4.85
2018-03-14T11:03:44.969Z,6.72
2018-03-14T11:06:12.470Z,3.67
2018-03-14T11:08:40.190Z,4.97
2018-03-14T11:11:07.709Z,4.75
2018-03-14T11:13:35.214Z,5.15
2018-03-14T11:16:02.725Z,3.90
2018-03-14T11:18:30.225Z,4.20
2018-03-14T11:20:57.732Z,6.18
2018-03-14T11:23:25.236Z,5.62
2018-03-14T11:25:52.785Z,5.10
2018-03-14T11:28:20.826Z,4.43
2018-03-14T11:30:48.342Z,4.40
2018-03-14T11:33:15.852Z,7.32
2018-03-14T11:35:43.368Z,6.07
2018-03-14T11:38:10.896Z,5.20
2018-03-14T11:40:38.408Z,4.25
2018-03-14T11:43:05.915Z,4.45
2018-03-14T11:45:33.425Z,6.95
2018-03-14T11:48:00.930Z,5.30
2018-03-14T11:50:28.449Z,4.90
2018-03-14T11:52:55.956Z,4.40
2018-03-14T11:55:23.473Z,4.90
2018-03-14T11:57:50.981Z,4.18
2018-03-14T12:00:18.493Z,3.90
2018-03-14T12:02:46.004Z,3.72
2018-03-14T12:05:13.507Z,4.93
2018-03-14T12:07:41.011Z,4.80
2018-03-14T12:10:08.620Z,5.62
2018-03-14T12:12:36.269Z,5.03
2018-03-14T12:15:03.786Z,5.35
2018-03-14T12:17:33.281Z,4.57
2018-03-14T12:20:01.613Z,4.20
2018-03-14T12:22:31.694Z,4.72
2018-03-14T12:24:59.211Z,5.32
2018-03-14T12:27:26.721Z,4.85
2018-03-14T12:29:54.246Z,4.87
2018-03-14T12:32:21.991Z,6.45
2018-03-14T12:34:49.513Z,4.70
2018-03-14T12:37:17.024Z,4.53
2018-03-14T12:39:45.153Z,4.60
2018-03-14T12:42:12.671Z,3.50
2018-03-14T12:44:40.418Z,4.68
2018-03-14T12:47:07.928Z,4.07
2018-03-14T12:49:35.437Z,6.10
2018-03-14T12:52:03.360Z,6.55
2018-03-14T12:54:30.878Z,4.10
2018-03-14T12:56:58.416Z,4.18
2018-03-14T12:59:25.940Z,6.15
2018-03-14T13:01:53.161Z,7.70
2018-03-14T13:04:20.670Z,4.10
2018-03-14T13:06:50.139Z,4.72
2018-03-14T13:09:17.653Z,3.80
2018-03-14T13:11:45.236Z,4.20
2018-03-14T13:14:12.889Z,4.55
2018-03-14T13:16:40.409Z,7.87
2018-03-14T13:19:07.933Z,4.62
2018-03-14T13:21:35.430Z,4.10
2018-03-14T13:24:02.457Z,3.87
2018-03-14T13:26:29.676Z,4.03
2018-03-14T13:28:56.898Z,5.67
2018-03-14T13:31:24.122Z,4.30
2018-03-14T13:33:51.347Z,4.40
2018-03-14T13:36:18.572Z,5.13
2018-03-14T13:38:45.825Z,5.83
2018-03-14T13:41:13.069Z,4.80
2018-03-14T13:43:40.293Z,5.20
2018-03-14T13:46:07.528Z,3.93
2018-03-14T13:48:34.736Z,3.40
2018-03-14T13:51:01.965Z,5.07
2018-03-14T13:53:29.194Z,3.83
2018-03-14T13:55:56.418Z,3.67
2018-03-14T13:58:23.688Z,3.77
2018-03-14T14:00:52.997Z,4.77
2018-03-14T14:03:20.220Z,4.60
2018-03-14T14:05:49.373Z,6.13
2018-03-14T14:08:16.595Z,3.77
2018-03-14T14:10:45.737Z,4.23
2018-03-14T14:13:12.952Z,4.83
2018-03-14T14:15:40.169Z,3.33
2018-03-14T14:18:07.397Z,4.10
2018-03-14T14:20:34.624Z,4.50
2018-03-14T14:23:01.858Z,4.37
2018-03-14T14:25:29.073Z,3.50
2018-03-14T14:27:56.292Z,3.87
2018-03-14T14:30:23.509Z,5.53
2018-03-14T14:32:50.725Z,4.80
2018-03-14T14:35:17.944Z,4.70
2018-03-14T14:37:44.973Z,6.30
2018-03-14T14:40:12.195Z,4.83
2018-03-14T14:42:41.359Z,4.50
2018-03-14T14:45:08.568Z,5.50
2018-03-14T14:47:35.782Z,3.60
2018-03-14T14:50:03.010Z,5.50
2018-03-14T14:52:30.241Z,4.80
2018-03-14T14:54:57.453Z,3.67
2018-03-14T14:57:24.681Z,3.87
2018-03-14T14:59:51.913Z,4.67
2018-03-14T15:02:19.125Z,3.37
2018-03-14T15:04:46.357Z,6.60
2018-03-14T15:07:13.586Z,5.33
2018-03-14T15:09:40.800Z,4.30
2018-03-14T15:12:08.012Z,4.40
2018-03-14T15:14:35.228Z,4.90
2018-03-14T15:17:02.470Z,4.53
2018-03-14T15:19:29.858Z,4.77
2018-03-14T15:21:57.084Z,4.03
2018-03-14T15:24:25.133Z,5.43
2018-03-14T15:26:52.347Z,4.37
2018-03-14T15:29:19.574Z,3.90
2018-03-14T15:31:46.781Z,4.27
2018-03-14T15:34:14.030Z,4.37
2018-03-14T15:36:41.400Z,3.40
2018-03-14T15:39:08.613Z,4.03
2018-03-14T15:41:35.834Z,3.70
2018-03-14T15:44:03.049Z,7.40
2018-03-14T15:46:30.275Z,3.50
2018-03-14T15:48:57.492Z,4.20
2018-03-14T15:51:24.713Z,3.80
2018-03-14T15:53:51.926Z,5.30
2018-03-14T15:56:19.154Z,4.50
2018-03-14T15:58:46.373Z,4.17
2018-03-14T16:01:13.591Z,4.47
2018-03-14T16:03:40.818Z,4.17
2018-03-14T16:06:08.052Z,4.83
2018-03-14T16:08:36.081Z,5.30
2018-03-14T16:11:03.296Z,4.70
2018-03-14T16:13:30.516Z,4.90
2018-03-14T16:15:57.740Z,7.00
2018-03-14T16:18:24.956Z,7.03
2018-03-14T16:20:52.182Z,5.53
2018-03-14T16:23:19.426Z,4.00
2018-03-14T16:25:46.651Z,3.77
2018-03-14T16:28:15.848Z,5.40
2018-03-14T16:30:43.084Z,5.60
2018-03-14T16:33:10.321Z,5.50
2018-03-14T16:35:37.535Z,6.47
2018-03-14T16:38:04.504Z,8.90
2018-03-14T16:40:33.870Z,4.83
2018-03-14T16:43:01.097Z,5.60
2018-03-14T16:45:30.312Z,5.73
2018-03-14T16:47:57.524Z,6.20
2018-03-14T16:50:24.749Z,7.80
2018-03-14T16:52:52.371Z,5.00
2018-03-14T16:55:19.610Z,5.13
2018-03-14T16:57:46.826Z,7.03
2018-03-14T17:00:14.045Z,9.20
2018-03-14T17:02:41.274Z,5.70
2018-03-14T17:05:08.507Z,5.63
2018-03-14T17:07:36.012Z,4.87
2018-03-14T17:10:03.526Z,5.40
2018-03-14T17:12:31.055Z,9.73
2018-03-14T17:14:58.561Z,6.15
2018-03-14T17:17:26.079Z,10.30
2018-03-14T17:19:55.578Z,9.00
2018-03-14T17:22:23.090Z,7.22
2018-03-14T17:24:50.622Z,5.82
2018-03-14T17:27:18.310Z,11.70
2018-03-14T17:29:45.840Z,5.90
2018-03-14T17:32:13.367Z,7.47
2018-03-14T17:34:42.975Z,5.05
2018-03-14T17:37:10.490Z,6.45
2018-03-14T17:39:37.996Z,5.70
2018-03-14T17:42:05.526Z,7.55
2018-03-14T17:44:33.032Z,7.07
2018-03-14T17:47:02.493Z,5.90
2018-03-14T17:49:30.017Z,7.65
2018-03-14T17:51:57.538Z,8.88
2018-03-14T17:54:25.056Z,10.55
2018-03-14T17:56:52.649Z,7.90
2018-03-14T17:59:20.413Z,8.80
2018-03-14T18:01:47.932Z,11.07
2018-03-14T18:04:15.441Z,9.25
2018-03-14T18:06:42.960Z,6.40
2018-03-14T18:09:10.468Z,9.95
2018-03-14T18:11:37.988Z,7.22
2018-03-14T18:14:05.484Z,8.95
2018-03-14T18:16:33.186Z,6.37
2018-03-14T18:19:00.713Z,6.32
2018-03-14T18:21:28.228Z,7.30
2018-03-14T18:23:55.725Z,9.55
2018-03-14T18:26:23.226Z,7.37
2018-03-14T18:28:50.739Z,8.05
2018-03-14T18:31:18.245Z,7.75
2018-03-14T18:33:45.761Z,9.73
2018-03-14T18:36:13.284Z,11.38
2018-03-14T18:38:40.798Z,11.82
2018-03-14T18:41:08.306Z,10.23
2018-03-14T18:43:35.804Z,9.20
2018-03-14T18:46:03.331Z,12.07
2018-03-14T18:48:30.886Z,12.37
2018-03-14T18:50:58.382Z,9.32
2018-03-14T18:53:25.894Z,11.40
2018-03-14T18:55:53.425Z,12.52
2018-03-14T18:58:20.996Z,10.90
2018-03-14T19:00:50.522Z,15.43
2018-03-14T19:03:18.047Z,18.65
2018-03-14T19:05:45.565Z,11.38
2018-03-14T19:08:13.097Z,11.52
2018-03-14T19:10:40.623Z,11.25
2018-03-14T19:13:08.154Z,11.40
2018-03-14T19:15:35.665Z,14.45
2018-03-14T19:18:03.177Z,11.30
2018-03-14T19:20:30.689Z,20.12
2018-03-14T19:22:58.202Z,12.63
2018-03-14T19:25:25.709Z,13.02
2018-03-14T19:27:53.218Z,16.77
2018-03-14T19:30:20.725Z,13.62
2018-03-14T19:32:48.240Z,14.23
2018-03-14T19:35:15.753Z,12.68
2018-03-14T19:37:45.188Z,13.90
2018-03-14T19:40:12.704Z,13.85
2018-03-14T19:42:40.220Z,12.70
2018-03-14T19:45:07.725Z,13.30
2018-03-14T19:47:35.246Z,15.15
2018-03-14T19:50:02.750Z,15.18
2018-03-14T19:52:30.289Z,11.77
2018-03-14T19:54:57.793Z,21.83
2018-03-14T19:57:25.296Z,19.23
2018-03-14T19:59:52.803Z,12.80
2018-03-14T20:02:21.322Z,19.27
2018-03-14T20:04:48.833Z,13.82
2018-03-14T20:07:16.393Z,16.92
2018-03-14T20:09:43.901Z,15.77
2018-03-14T20:12:11.410Z,16.55
2018-03-14T20:14:38.921Z,21.17
2018-03-14T20:17:06.442Z,16.60
2018-03-14T20:19:33.949Z,15.65
2018-03-14T20:22:01.463Z,18.25
2018-03-14T20:24:28.968Z,15.57
2018-03-14T20:26:58.440Z,21.02
2018-03-14T20:29:25.964Z,18.60
2018-03-14T20:31:53.485Z,17.65
2018-03-14T20:34:21.012Z,20.30
2018-03-14T20:36:48.530Z,22.27
2018-03-14T20:39:16.082Z,26.98
2018-03-14T20:41:43.588Z,23.50
2018-03-14T20:44:11.105Z,20.35
2018-03-14T20:46:38.628Z,24.10
2018-03-14T20:49:06.150Z,28.52
2018-03-14T20:51:33.681Z,21.90
2018-03-14T20:54:01.225Z,23.60
2018-03-14T20:56:28.742Z,26.25
2018-03-14T20:58:58.208Z,19.83
2018-03-14T21:01:25.730Z,44.53
2018-03-14T21:03:53.258Z,45.72
2018-03-14T21:06:20.771Z,29.15
2018-03-14T21:08:48.301Z,29.37
2018-03-14T21:11:15.806Z,26.90
2018-03-14T21:13:43.332Z,23.98
2018-03-14T21:16:10.844Z,26.10
2018-03-14T21:18:38.377Z,29.77
2018-03-14T21:21:05.909Z,28.75
2018-03-14T21:23:33.441Z,21.12
2018-03-14T21:26:02.877Z,29.10
2018-03-14T21:28:30.390Z,29.12
2018-03-14T21:30:57.944Z,27.75
2018-03-14T21:33:25.457Z,32.20
2018-03-14T21:35:52.980Z,38.00
2018-03-14T21:38:20.498Z,26.83
2018-03-14T21:40:48.024Z,30.98
2018-03-14T21:43:15.543Z,30.17
2018-03-14T21:45:44.066Z,36.28
2018-03-14T21:48:11.576Z,40.88
2018-03-14T21:50:39.089Z,34.58
2018-03-14T21:53:06.626Z,42.42
2018-03-14T21:55:38.829Z,37.70
2018-03-14T21:58:06.351Z,40.40
2018-03-14T22:00:33.875Z,42.78
2018-03-14T22:03:01.394Z,38.15
2018-03-14T22:05:29.912Z,49.28
2018-03-14T22:07:57.430Z,45.88
2018-03-14T22:10:24.939Z,49.50
2018-03-14T22:12:52.264Z,68.45
2018-03-14T22:15:19.780Z,60.70
2018-03-14T22:17:47.308Z,75.75
2018-03-14T22:20:14.818Z,81.93
2018-03-14T22:22:42.335Z,56.78
2018-03-14T22:25:09.843Z,90.38
2018-03-14T22:27:37.125Z,66.45
2018-03-14T22:30:04.641Z,60.95
2018-03-14T22:32:32.173Z,377.40
2018-03-14T22:34:59.693Z,182.40
2018-03-14T22:37:27.237Z,274.48
2018-03-14T22:39:54.750Z,83.90
2018-03-14T22:42:22.272Z,68.07
2018-03-14T22:44:49.807Z,57.70
2018-03-14T22:47:17.327Z,47.70
2018-03-14T22:49:44.884Z,40.53
2018-03-14T22:52:12.405Z,42.50
2018-03-14T22:54:39.932Z,50.60
2018-03-14T22:57:07.455Z,37.88
2018-03-14T22:59:34.969Z,33.53
2018-03-14T23:02:04.401Z,39.25
2018-03-14T23:04:31.922Z,32.83
2018-03-14T23:06:59.442Z,49.97
2018-03-14T23:09:26.964Z,34.38
2018-03-14T23:11:54.493Z,42.00
2018-03-14T23:14:22.009Z,42.42
2018-03-14T23:16:49.521Z,67.10
2018-03-14T23:19:17.033Z,34.38
2018-03-14T23:21:44.592Z,44.50
2018-03-14T23:24:12.106Z,46.55
2018-03-14T23:26:39.638Z,30.30
2018-03-14T23:29:07.169Z,39.80
2018-03-14T23:31:34.713Z,46.42
2018-03-14T23:34:02.243Z,43.60
2018-03-14T23:36:31.704Z,27.83
2018-03-14T23:38:58.995Z,35.22
2018-03-14T23:41:26.511Z,32.80
2018-03-14T23:43:54.027Z,29.35
2018-03-14T23:46:21.570Z,42.50
2018-03-14T23:48:49.068Z,32.08
2018-03-14T23:51:18.538Z,35.97
2018-03-14T23:53:46.070Z,40.05
2018-03-14T23:56:13.561Z,40.40
2018-03-14T23:58:41.086Z,34.40
